Mott, North Dakota
Current Conditions -  °F | °C
As of 4:53 PM on Thursday 27 Nov 2014 (Local Time) from KHEI Reporting Station
Broken Clouds Broken Clouds  
Wind Chill: 15°   Ceiling: 9000
Heat Index: 24°   Visibility: 10mi
Dew Point: 20°   Wind: 8mph
Humidity: 84%   Direction: 160°SSE
Pressure: 29.85"   Gusts: NA
Location:  46.37°N, 102.33°W
Report Text: KHEI 272353Z AUTO 16007KT 10SM BKN090 M04/M07 A2985 RMK AO2 SLP149 60000 T10441067 11039 21072 56023
Loading
Personal Weather Stations






























Interactive Weather Map New forecast layout! Learn more

10-Day Weather Forecast

Advertisements
Track Severe Weather on mobile